Time;durP1;ratioP1;P1;durP2;ratioP2;P2;SDS_P1;SDS_P2;PMS_P1;PMS_P2;Temp;Humidity;BMP_temperature;BMP_pressure;BME280_temperature;BME280_humidity;BME280_pressure;Samples;Min_cycle;Max_cycle;Signal;HPM_P1;HPM_P2
2021/09/05 00:01:45;;;;;;;6.43;5.93;;;12.50;99.90;;;;;;5030870;28;20610;-76
2021/09/05 00:04:10;;;;;;;6.97;6.00;;;12.70;99.90;;;;;;5032443;28;20533;-79
2021/09/05 00:06:36;;;;;;;7.53;6.60;;;12.40;99.90;;;;;;5043721;28;20471;-76
2021/09/05 00:09:02;;;;;;;7.13;6.40;;;12.30;99.90;;;;;;5041918;28;20470;-76
2021/09/05 00:11:28;;;;;;;7.60;6.70;;;12.40;99.90;;;;;;5020918;28;20179;-76
2021/09/05 00:13:53;;;;;;;8.33;6.80;;;12.60;99.90;;;;;;5034628;28;20442;-76
2021/09/05 00:16:19;;;;;;;7.50;6.33;;;12.40;99.90;;;;;;5026125;28;20457;-76
2021/09/05 00:18:45;;;;;;;7.33;6.60;;;12.60;99.90;;;;;;5024052;28;20187;-77
2021/09/05 00:21:11;;;;;;;7.55;6.85;;;12.60;99.90;;;;;;5029534;28;20195;-77
2021/09/05 00:23:36;;;;;;;6.83;6.10;;;12.70;99.90;;;;;;5033108;28;20187;-77
2021/09/05 00:26:02;;;;;;;7.53;6.80;;;12.60;99.90;;;;;;5026609;28;20215;-76
2021/09/05 00:28:27;;;;;;;6.70;6.00;;;12.30;99.90;;;;;;5024136;28;20211;-78
2021/09/05 00:30:53;;;;;;;7.23;5.43;;;12.30;99.90;;;;;;5026668;28;20182;-77
2021/09/05 00:33:18;;;;;;;7.30;6.07;;;12.00;99.90;;;;;;5042223;28;20182;-77
2021/09/05 00:35:44;;;;;;;5.73;5.13;;;12.50;99.90;;;;;;5036256;28;20285;-77
2021/09/05 00:38:09;;;;;;;8.40;6.57;;;12.30;99.90;;;;;;5025578;28;20179;-77
2021/09/05 00:40:35;;;;;;;7.17;6.00;;;12.30;99.90;;;;;;5036988;28;20552;-77
2021/09/05 00:43:01;;;;;;;5.83;5.23;;;12.10;99.90;;;;;;5041974;28;20190;-77
2021/09/05 00:45:26;;;;;;;6.30;5.50;;;12.30;99.90;;;;;;5042099;28;20213;-77
2021/09/05 00:47:52;;;;;;;6.40;5.80;;;12.00;99.90;;;;;;5045176;28;20562;-77
2021/09/05 00:50:17;;;;;;;6.30;5.80;;;12.00;99.90;;;;;;5037781;28;20219;-77
2021/09/05 00:52:43;;;;;;;7.20;5.93;;;12.00;99.90;;;;;;5020119;28;20182;-77
2021/09/05 00:55:09;;;;;;;8.50;5.53;;;12.00;99.90;;;;;;5025339;28;20194;-77
2021/09/05 00:57:34;;;;;;;7.27;6.20;;;12.30;99.90;;;;;;5023466;28;20179;-77
2021/09/05 01:00:00;;;;;;;6.63;5.93;;;11.70;99.90;;;;;;5030927;28;20244;-77
2021/09/05 01:02:26;;;;;;;8.87;6.43;;;12.00;99.90;;;;;;5025255;28;20195;-77
2021/09/05 01:04:51;;;;;;;9.60;6.77;;;11.90;99.90;;;;;;5025331;28;20428;-77
2021/09/05 01:07:17;;;;;;;9.40;6.00;;;12.20;99.90;;;;;;5025271;28;20283;-77
2021/09/05 01:09:45;;;;;;;8.80;6.47;;;11.80;99.90;;;;;;5026122;28;20207;-77
2021/09/05 01:12:11;;;;;;;6.85;6.20;;;11.70;99.90;;;;;;5032107;28;20181;-77
2021/09/05 01:14:37;;;;;;;6.67;5.93;;;11.90;99.90;;;;;;5020178;28;20194;-77
2021/09/05 01:17:02;;;;;;;6.37;5.70;;;12.00;99.90;;;;;;5028421;28;20429;-77
2021/09/05 01:19:28;;;;;;;7.60;6.53;;;11.90;99.90;;;;;;5027398;28;20591;-77
2021/09/05 01:21:54;;;;;;;7.07;6.17;;;11.60;99.90;;;;;;5045687;28;20527;-77
2021/09/05 01:24:21;;;;;;;6.60;5.93;;;12.00;99.90;;;;;;5034376;28;20177;-77
2021/09/05 01:26:48;;;;;;;6.88;6.03;;;11.90;99.90;;;;;;5048272;28;20442;-77
2021/09/05 01:29:15;;;;;;;7.03;6.22;;;12.00;99.90;;;;;;5041156;28;20221;-77
2021/09/05 01:31:43;;;;;;;8.50;5.97;;;11.70;99.90;;;;;;5043543;28;20283;-77
2021/09/05 01:34:11;;;;;;;6.40;5.70;;;11.70;99.90;;;;;;5035065;28;20843;-77
2021/09/05 01:36:39;;;;;;;6.82;6.18;;;11.70;99.90;;;;;;5059317;28;20663;-77
2021/09/05 01:39:06;;;;;;;8.57;6.57;;;11.80;99.90;;;;;;5048329;28;20194;-77
2021/09/05 01:41:32;;;;;;;7.10;5.88;;;11.60;99.90;;;;;;5049944;28;20193;-77
2021/09/05 01:44:02;;;;;;;7.25;5.95;;;11.60;99.90;;;;;;5062225;28;20228;-77
2021/09/05 01:46:28;;;;;;;6.93;6.22;;;11.80;99.90;;;;;;5058855;28;20204;-77
2021/09/05 01:48:54;;;;;;;9.63;6.78;;;11.60;99.90;;;;;;5053560;28;20229;-77
2021/09/05 01:51:20;;;;;;;6.67;6.07;;;11.40;99.90;;;;;;5046816;28;20268;-77
2021/09/05 01:53:45;;;;;;;8.13;7.00;;;11.70;99.90;;;;;;5043774;28;20642;-77
2021/09/05 01:56:11;;;;;;;7.13;6.43;;;11.50;99.90;;;;;;5047603;28;20596;-77
2021/09/05 01:58:36;;;;;;;7.67;6.70;;;11.50;99.90;;;;;;5046124;28;20190;-77
2021/09/05 02:01:02;;;;;;;6.80;5.97;;;11.30;99.90;;;;;;5047624;28;20191;-77
2021/09/05 02:03:28;;;;;;;7.10;6.50;;;11.50;99.90;;;;;;5042260;28;20194;-76
2021/09/05 02:05:53;;;;;;;6.93;6.27;;;11.40;99.90;;;;;;5051373;28;20270;-77
2021/09/05 02:08:19;;;;;;;7.43;6.73;;;11.70;99.90;;;;;;5042148;28;20182;-77
2021/09/05 02:10:44;;;;;;;6.67;5.97;;;11.40;99.90;;;;;;5047974;28;20217;-77
2021/09/05 02:13:10;;;;;;;7.43;6.07;;;11.30;99.90;;;;;;5047201;28;20255;-77
2021/09/05 02:15:35;;;;;;;7.10;6.40;;;11.30;99.90;;;;;;5044017;28;20236;-77
2021/09/05 02:18:01;;;;;;;10.07;6.83;;;11.40;99.90;;;;;;5042323;28;20271;-77
2021/09/05 02:20:27;;;;;;;7.90;6.80;;;11.50;99.90;;;;;;5043767;28;20204;-77
2021/09/05 02:22:52;;;;;;;7.83;7.10;;;11.50;99.90;;;;;;5047527;28;20648;-77
2021/09/05 02:25:18;;;;;;;7.30;6.60;;;11.40;99.90;;;;;;5029573;28;20428;-77
2021/09/05 02:27:43;;;;;;;6.97;6.27;;;11.40;99.90;;;;;;5041092;28;20645;-77
2021/09/05 02:30:10;;;;;;;7.00;6.30;;;11.20;99.90;;;;;;5041584;28;20436;-76
2021/09/05 02:32:36;;;;;;;9.63;6.63;;;11.30;99.90;;;;;;5042272;28;20185;-76
2021/09/05 02:35:02;;;;;;;7.45;6.50;;;11.40;99.90;;;;;;5043375;28;20238;-77
2021/09/05 02:37:28;;;;;;;9.52;6.38;;;11.40;99.90;;;;;;5045251;28;20192;-76
2021/09/05 02:39:54;;;;;;;7.13;6.43;;;11.50;99.90;;;;;;5047150;28;20182;-77
2021/09/05 02:42:19;;;;;;;7.07;6.37;;;11.20;99.90;;;;;;5051026;28;20174;-76
2021/09/05 02:44:45;;;;;;;9.03;6.70;;;11.40;99.90;;;;;;5041738;28;20262;-76
2021/09/05 02:47:10;;;;;;;7.60;6.77;;;11.40;99.90;;;;;;5041646;28;20264;-76
2021/09/05 02:49:36;;;;;;;7.30;6.60;;;11.50;99.90;;;;;;5041679;28;20252;-76
2021/09/05 02:52:01;;;;;;;8.13;7.33;;;11.50;99.90;;;;;;5043404;28;20182;-76
2021/09/05 02:54:27;;;;;;;8.70;7.80;;;11.40;99.90;;;;;;5044410;28;20193;-76
2021/09/05 02:56:53;;;;;;;8.40;6.35;;;11.50;99.90;;;;;;5046763;28;20209;-76
2021/09/05 02:59:19;;;;;;;7.00;6.30;;;11.50;99.90;;;;;;5045219;28;20205;-76
2021/09/05 03:01:44;;;;;;;7.27;6.57;;;11.40;99.90;;;;;;5041175;28;20530;-76
2021/09/05 03:04:10;;;;;;;7.90;6.10;;;11.30;99.90;;;;;;5046485;28;20230;-76
2021/09/05 03:06:36;;;;;;;7.40;6.43;;;11.30;99.90;;;;;;5044598;28;20188;-76
2021/09/05 03:09:02;;;;;;;6.35;5.82;;;11.40;99.90;;;;;;5044841;28;20239;-76
2021/09/05 03:11:27;;;;;;;7.40;6.70;;;11.30;99.90;;;;;;5041259;28;20214;-77
2021/09/05 03:13:53;;;;;;;7.20;6.50;;;11.10;99.90;;;;;;5041577;28;20640;-77
2021/09/05 03:16:19;;;;;;;7.83;7.03;;;11.00;99.90;;;;;;5042158;28;20245;-76
2021/09/05 03:18:44;;;;;;;10.37;7.03;;;11.30;99.90;;;;;;5044764;28;20263;-77
2021/09/05 03:21:10;;;;;;;6.80;6.20;;;11.20;99.90;;;;;;5046235;28;20178;-77
2021/09/05 03:23:35;;;;;;;8.10;6.90;;;11.00;99.90;;;;;;5043373;28;20192;-77
2021/09/05 03:26:01;;;;;;;7.27;6.40;;;11.00;99.90;;;;;;5046384;28;20208;-77
2021/09/05 03:28:26;;;;;;;7.00;6.30;;;11.20;99.90;;;;;;5041013;28;20218;-77
2021/09/05 03:30:52;;;;;;;6.80;6.10;;;11.30;99.90;;;;;;5042715;28;20264;-77
2021/09/05 03:33:17;;;;;;;7.50;6.77;;;11.10;99.90;;;;;;5046149;28;20182;-76
2021/09/05 03:35:43;;;;;;;8.00;7.00;;;11.10;99.90;;;;;;5044202;28;20179;-76
2021/09/05 03:38:08;;;;;;;7.90;7.10;;;11.00;99.90;;;;;;5042524;28;20179;-77
2021/09/05 03:40:34;;;;;;;6.73;6.13;;;11.10;99.90;;;;;;5040729;28;20644;-76
2021/09/05 03:42:59;;;;;;;8.87;6.47;;;11.10;99.90;;;;;;5040517;28;20170;-76
2021/09/05 03:45:25;;;;;;;8.97;7.10;;;11.20;99.90;;;;;;5042331;28;20231;-76
2021/09/05 03:47:50;;;;;;;7.47;6.67;;;11.10;99.90;;;;;;5041982;28;20182;-76
2021/09/05 03:50:16;;;;;;;8.40;7.57;;;11.10;99.90;;;;;;5042009;28;20233;-76
2021/09/05 03:52:42;;;;;;;8.07;7.30;;;11.10;99.90;;;;;;5045605;28;20707;-76
2021/09/05 03:55:09;;;;;;;7.88;7.15;;;11.10;99.90;;;;;;5038010;28;20183;-76
2021/09/05 03:57:34;;;;;;;8.27;7.00;;;11.20;99.90;;;;;;5040408;28;20659;-76
2021/09/05 04:00:00;;;;;;;7.53;6.53;;;11.30;99.90;;;;;;5040512;28;20199;-77
2021/09/05 04:02:25;;;;;;;7.97;7.17;;;11.10;99.90;;;;;;5040000;28;20681;-76
2021/09/05 04:04:51;;;;;;;8.30;6.90;;;11.10;99.90;;;;;;5041899;28;20542;-76
2021/09/05 04:07:19;;;;;;;8.70;7.83;;;11.00;99.90;;;;;;5045735;28;20192;-76
2021/09/05 04:12:29;;;;;;;6.80;6.10;;;11.10;99.90;;;;;;5034234;28;20226;-76
2021/09/05 04:14:55;;;;;;;7.50;6.80;;;11.00;99.90;;;;;;5042173;28;20210;-76
2021/09/05 04:17:20;;;;;;;8.57;6.63;;;10.90;99.90;;;;;;5045423;28;20180;-78
2021/09/05 04:19:46;;;;;;;7.53;6.73;;;11.00;99.90;;;;;;5043703;28;20220;-76
2021/09/05 04:22:11;;;;;;;7.00;6.30;;;11.00;99.90;;;;;;5026025;28;20184;-76
2021/09/05 04:24:37;;;;;;;7.07;6.50;;;10.80;99.90;;;;;;5039959;28;20875;-76
2021/09/05 04:27:05;;;;;;;7.47;6.77;;;11.10;99.90;;;;;;5045538;28;20204;-76
2021/09/05 04:29:31;;;;;;;8.73;7.10;;;11.00;99.90;;;;;;5043026;28;20214;-76
2021/09/05 04:31:57;;;;;;;7.60;6.70;;;10.80;99.90;;;;;;5043139;28;20218;-76
2021/09/05 04:34:22;;;;;;;8.00;7.20;;;11.10;99.90;;;;;;5041610;28;20673;-77
2021/09/05 04:36:48;;;;;;;7.07;6.37;;;11.00;99.90;;;;;;5038708;28;20724;-76
2021/09/05 04:39:14;;;;;;;7.30;6.60;;;11.00;99.90;;;;;;5041629;28;20196;-77
2021/09/05 04:41:40;;;;;;;8.47;7.60;;;10.60;99.90;;;;;;5042904;28;20403;-76
2021/09/05 04:44:05;;;;;;;7.77;7.00;;;10.90;99.90;;;;;;5045017;28;20233;-76
2021/09/05 04:46:31;;;;;;;9.80;7.60;;;10.90;99.90;;;;;;5042952;28;20183;-76
2021/09/05 04:48:56;;;;;;;7.20;6.50;;;10.90;99.90;;;;;;5039918;28;20320;-76
2021/09/05 04:51:22;;;;;;;8.00;7.00;;;10.80;99.90;;;;;;5043339;28;20345;-77
2021/09/05 04:53:47;;;;;;;7.83;7.13;;;11.00;99.90;;;;;;5045425;28;20612;-77
2021/09/05 04:56:14;;;;;;;7.77;6.63;;;10.90;99.90;;;;;;5049185;28;20260;-77
2021/09/05 04:58:40;;;;;;;8.32;7.43;;;11.00;99.90;;;;;;5047299;28;20196;-77
2021/09/05 05:01:06;;;;;;;10.15;7.60;;;10.90;99.90;;;;;;5045643;28;20195;-77
2021/09/05 05:03:31;;;;;;;8.37;7.50;;;11.00;99.90;;;;;;5043566;28;20182;-76
2021/09/05 05:05:57;;;;;;;7.53;6.67;;;11.20;99.90;;;;;;5043875;28;20206;-76
2021/09/05 05:08:22;;;;;;;8.17;7.37;;;11.10;99.90;;;;;;5044168;28;20190;-76
2021/09/05 05:10:48;;;;;;;9.10;7.37;;;11.10;99.90;;;;;;5043464;28;20187;-76
2021/09/05 05:13:13;;;;;;;8.10;7.33;;;11.10;99.90;;;;;;5047010;28;20595;-76
2021/09/05 05:15:39;;;;;;;7.70;6.83;;;11.10;99.90;;;;;;5045804;28;20176;-76
2021/09/05 05:18:04;;;;;;;8.10;7.13;;;11.10;99.90;;;;;;5047197;28;20204;-76
2021/09/05 05:20:30;;;;;;;6.97;6.27;;;11.10;99.90;;;;;;5043201;28;20202;-76
2021/09/05 05:22:57;;;;;;;8.20;7.43;;;11.10;99.90;;;;;;5041717;28;20188;-76
2021/09/05 05:25:22;;;;;;;8.52;7.38;;;11.20;99.90;;;;;;5048384;28;20728;-76
2021/09/05 05:27:48;;;;;;;11.70;7.17;;;11.30;99.90;;;;;;5046501;28;20196;-76
2021/09/05 05:30:13;;;;;;;8.50;7.63;;;11.00;99.90;;;;;;5045282;28;20212;-76
2021/09/05 05:32:39;;;;;;;7.30;6.60;;;11.60;99.90;;;;;;5042712;28;20661;-76
2021/09/05 05:35:06;;;;;;;8.13;7.33;;;11.60;99.90;;;;;;5045697;28;20183;-76
2021/09/05 05:37:32;;;;;;;9.27;7.75;;;11.50;99.90;;;;;;5048322;28;20497;-76
2021/09/05 05:39:57;;;;;;;10.07;8.43;;;11.50;99.90;;;;;;5048594;28;20194;-76
2021/09/05 05:42:23;;;;;;;9.30;7.80;;;11.50;99.90;;;;;;5053246;28;20208;-76
2021/09/05 05:44:49;;;;;;;9.53;7.53;;;11.60;99.90;;;;;;5041029;28;20293;-76
2021/09/05 05:47:14;;;;;;;7.70;7.00;;;11.60;99.90;;;;;;5044982;28;20557;-76
2021/09/05 05:49:43;;;;;;;8.80;7.40;;;11.80;99.90;;;;;;5044008;28;20236;-76
2021/09/05 05:52:09;;;;;;;8.38;7.63;;;12.20;99.90;;;;;;5048015;28;20201;-76
2021/09/05 05:54:34;;;;;;;8.23;7.50;;;12.20;99.90;;;;;;5045517;28;20574;-76
2021/09/05 05:57:00;;;;;;;7.90;7.10;;;12.00;99.90;;;;;;5044594;28;20661;-76
2021/09/05 05:59:25;;;;;;;9.30;7.37;;;12.40;99.90;;;;;;5042801;28;20198;-76
2021/09/05 06:01:51;;;;;;;8.30;7.50;;;12.30;99.90;;;;;;5045340;28;20598;-76
2021/09/05 06:04:16;;;;;;;8.07;7.20;;;12.40;99.90;;;;;;5048091;28;20552;-76
2021/09/05 06:06:42;;;;;;;8.23;7.03;;;12.50;99.90;;;;;;5045708;28;21481;-76
2021/09/05 06:09:07;;;;;;;8.13;7.30;;;12.90;99.90;;;;;;5042972;28;20781;-76
2021/09/05 06:11:34;;;;;;;8.20;7.43;;;13.00;99.90;;;;;;5043601;28;20190;-76
2021/09/05 06:13:59;;;;;;;8.90;7.83;;;13.20;99.90;;;;;;5040065;28;20348;-77
2021/09/05 06:16:27;;;;;;;8.00;7.13;;;13.40;99.90;;;;;;5047242;28;20514;-77
2021/09/05 06:18:53;;;;;;;8.87;7.50;;;13.80;99.90;;;;;;5044014;28;20186;-76
2021/09/05 06:21:18;;;;;;;8.40;7.43;;;14.10;99.90;;;;;;5044259;28;20437;-77
2021/09/05 06:23:44;;;;;;;7.67;6.97;;;14.00;99.90;;;;;;5045413;28;20182;-76
2021/09/05 06:26:09;;;;;;;7.90;7.10;;;14.00;99.90;;;;;;5047480;28;20471;-76
2021/09/05 06:28:35;;;;;;;7.77;7.07;;;14.30;99.90;;;;;;5043912;28;20620;-76
2021/09/05 06:31:01;;;;;;;8.50;7.63;;;14.30;99.90;;;;;;5049576;28;20662;-75
2021/09/05 06:33:26;;;;;;;8.77;7.97;;;14.60;99.90;;;;;;5042132;28;20183;-76
2021/09/05 06:35:52;;;;;;;7.80;6.93;;;14.60;99.90;;;;;;5045153;28;20240;-76
2021/09/05 06:38:18;;;;;;;7.20;6.60;;;14.70;99.90;;;;;;5047484;28;20517;-76
2021/09/05 06:40:43;;;;;;;9.03;8.10;;;14.90;99.90;;;;;;5045013;28;20187;-76
2021/09/05 06:43:09;;;;;;;8.40;7.57;;;15.10;99.90;;;;;;5043721;28;20188;-76
2021/09/05 06:45:34;;;;;;;8.87;8.07;;;15.30;99.90;;;;;;5043728;28;20202;-76
2021/09/05 06:48:00;;;;;;;9.37;8.47;;;15.50;99.90;;;;;;5046612;28;20276;-76
2021/09/05 06:50:25;;;;;;;8.27;7.57;;;15.80;99.90;;;;;;5045699;28;20744;-76
2021/09/05 06:52:51;;;;;;;9.83;7.77;;;15.80;99.90;;;;;;5043019;28;20186;-76
2021/09/05 06:55:16;;;;;;;7.90;7.20;;;16.00;99.90;;;;;;5041860;28;20185;-76
2021/09/05 06:57:42;;;;;;;8.10;7.40;;;16.40;99.90;;;;;;5046335;28;20233;-76
2021/09/05 07:00:08;;;;;;;8.03;7.30;;;16.90;99.90;;;;;;5046411;28;20201;-76
2021/09/05 07:02:34;;;;;;;8.47;7.77;;;17.40;99.90;;;;;;5043166;28;20221;-77
2021/09/05 07:04:59;;;;;;;7.80;7.17;;;17.70;99.90;;;;;;5043372;28;20451;-76
2021/09/05 07:07:25;;;;;;;7.70;7.00;;;18.20;99.90;;;;;;5046033;28;20185;-76
2021/09/05 07:09:50;;;;;;;9.10;7.87;;;18.30;99.90;;;;;;5046561;28;20212;-77
2021/09/05 07:12:16;;;;;;;7.70;6.93;;;18.60;99.90;;;;;;5044854;28;20643;-77
2021/09/05 07:14:41;;;;;;;8.90;8.10;;;18.90;99.90;;;;;;5041221;28;20642;-76
2021/09/05 07:17:07;;;;;;;9.27;8.37;;;18.80;99.90;;;;;;5046474;28;20191;-77
2021/09/05 07:19:33;;;;;;;8.27;7.47;;;18.70;99.90;;;;;;5046509;28;20185;-78
2021/09/05 07:21:58;;;;;;;9.60;8.70;;;18.70;99.90;;;;;;5038328;28;20198;-78
2021/09/05 07:24:24;;;;;;;8.40;7.60;;;19.10;99.90;;;;;;5042964;28;20182;-76
2021/09/05 07:26:49;;;;;;;7.70;7.00;;;18.70;99.90;;;;;;5050457;28;20197;-76
2021/09/05 07:29:18;;;;;;;9.60;7.80;;;19.00;99.90;;;;;;5046420;28;20207;-75
2021/09/05 07:31:44;;;;;;;8.27;7.47;;;18.90;99.90;;;;;;5043838;28;20186;-78
2021/09/05 07:34:09;;;;;;;8.90;7.70;;;18.80;99.90;;;;;;5041018;28;20506;-78
2021/09/05 07:36:36;;;;;;;7.90;7.20;;;18.90;99.90;;;;;;5041167;28;20428;-77
2021/09/05 07:39:02;;;;;;;8.20;7.40;;;18.80;99.90;;;;;;5042294;28;20230;-76
2021/09/05 07:41:28;;;;;;;7.73;7.03;;;18.90;99.90;;;;;;5044250;28;20443;-83
2021/09/05 07:43:54;;;;;;;7.27;6.57;;;19.20;99.90;;;;;;5045568;28;20542;-77
2021/09/05 07:46:19;;;;;;;8.00;7.30;;;19.20;97.80;;;;;;5042566;28;20511;-78
2021/09/05 07:48:45;;;;;;;8.17;7.10;;;19.30;98.90;;;;;;5034018;28;20789;-78
2021/09/05 07:51:11;;;;;;;7.93;7.10;;;19.20;98.30;;;;;;5035186;28;20200;-77
2021/09/05 07:53:36;;;;;;;7.90;7.20;;;19.60;94.90;;;;;;5039783;28;20187;-77
2021/09/05 07:56:02;;;;;;;6.93;6.33;;;19.40;94.90;;;;;;5039898;28;20645;-78
2021/09/05 07:58:27;;;;;;;7.40;6.70;;;19.40;94.40;;;;;;5039903;28;20197;-78
2021/09/05 08:00:54;;;;;;;7.80;7.00;;;19.60;93.70;;;;;;5039737;28;20528;-77
2021/09/05 08:03:20;;;;;;;6.20;5.70;;;19.90;93.30;;;;;;5042031;28;20336;-78
2021/09/05 08:05:45;;;;;;;7.50;6.80;;;20.20;93.20;;;;;;5043418;28;20428;-78
2021/09/05 08:08:11;;;;;;;7.90;7.20;;;20.10;91.70;;;;;;5045374;28;20785;-78
2021/09/05 08:10:38;;;;;;;7.63;6.83;;;20.30;91.00;;;;;;5041076;28;20276;-79
2021/09/05 08:13:04;;;;;;;7.03;6.43;;;20.10;90.00;;;;;;5042036;28;20527;-79
2021/09/05 08:15:29;;;;;;;7.30;6.60;;;20.50;90.30;;;;;;5043394;28;20436;-79
2021/09/05 08:17:55;;;;;;;6.30;5.70;;;20.50;90.70;;;;;;5044322;28;20204;-79
2021/09/05 08:20:20;;;;;;;6.77;6.17;;;20.90;90.30;;;;;;5041021;28;20189;-79
2021/09/05 08:22:47;;;;;;;6.83;6.23;;;20.70;86.00;;;;;;5039718;28;20644;-79
2021/09/05 08:25:13;;;;;;;7.47;6.77;;;20.90;85.90;;;;;;5038295;28;20214;-78
2021/09/05 08:27:39;;;;;;;7.90;7.30;;;20.90;86.30;;;;;;5026953;28;20444;-79
2021/09/05 08:30:05;;;;;;;7.33;6.57;;;21.20;86.20;;;;;;5049882;28;20824;-78
2021/09/05 08:32:31;;;;;;;8.50;7.70;;;21.20;86.50;;;;;;5046970;28;20183;-76
2021/09/05 08:34:56;;;;;;;7.97;7.33;;;21.40;84.50;;;;;;5040024;28;20539;-78
2021/09/05 08:37:22;;;;;;;8.20;7.20;;;21.30;83.50;;;;;;5045281;28;20176;-78
2021/09/05 08:39:47;;;;;;;8.17;7.47;;;21.70;81.70;;;;;;5039463;28;20189;-80
2021/09/05 08:42:13;;;;;;;8.27;7.57;;;22.10;82.40;;;;;;5043908;28;20425;-78
2021/09/05 08:44:39;;;;;;;8.00;7.20;;;22.70;85.90;;;;;;5046778;28;20736;-76
2021/09/05 08:47:05;;;;;;;7.83;6.80;;;23.20;76.30;;;;;;5042217;28;20191;-77
2021/09/05 08:49:34;;;;;;;7.60;6.90;;;24.30;77.30;;;;;;5038798;28;20254;-77
2021/09/05 08:52:00;;;;;;;7.97;7.30;;;25.80;63.70;;;;;;5041544;28;20437;-77
2021/09/05 08:54:25;;;;;;;6.97;6.40;;;27.40;57.80;;;;;;5041072;28;20426;-77
2021/09/05 08:56:53;;;;;;;8.90;7.07;;;28.60;52.50;;;;;;5044688;28;20433;-78
2021/09/05 08:59:19;;;;;;;6.73;6.23;;;29.80;50.50;;;;;;5049339;28;20215;-77
2021/09/05 09:01:52;;;;;;;6.73;6.23;;;31.20;44.80;;;;;;5038751;28;20429;-77
2021/09/05 09:04:18;;;;;;;6.70;6.20;;;32.50;42.40;;;;;;5040505;28;20421;-77
2021/09/05 09:06:44;;;;;;;7.20;6.50;;;33.60;39.70;;;;;;5041043;28;20436;-81
2021/09/05 09:09:10;;;;;;;7.77;7.07;;;34.70;36.80;;;;;;5053229;28;20519;-78
2021/09/05 09:11:47;;;;;;;7.13;6.53;;;35.00;33.80;;;;;;5042729;28;20187;-79
2021/09/05 09:14:12;;;;;;;7.00;6.50;;;35.80;33.80;;;;;;5038394;28;20881;-77
2021/09/05 09:16:38;;;;;;;7.20;6.60;;;36.20;31.70;;;;;;5039841;28;20878;-78
2021/09/05 09:19:04;;;;;;;7.83;6.50;;;36.40;29.70;;;;;;5045297;28;20178;-79
2021/09/05 09:21:38;;;;;;;6.20;5.70;;;37.00;30.50;;;;;;5047456;28;20653;-77
2021/09/05 09:24:13;;;;;;;5.87;5.47;;;37.60;28.70;;;;;;5046310;28;20367;-79
2021/09/05 09:26:39;;;;;;;7.33;6.80;;;37.90;29.10;;;;;;5043681;28;20459;-78
2021/09/05 09:29:16;;;;;;;7.60;7.00;;;37.80;26.90;;;;;;5039648;28;21036;-79
2021/09/05 09:31:43;;;;;;;6.40;5.87;;;37.50;27.00;;;;;;5040119;28;20213;-79
2021/09/05 09:34:20;;;;;;;5.07;4.77;;;38.00;28.00;;;;;;5043977;28;20446;-79
2021/09/05 09:36:46;;;;;;;5.87;5.47;;;39.00;27.80;;;;;;5043478;28;20439;-80
2021/09/05 09:39:15;;;;;;;5.70;5.20;;;39.00;25.10;;;;;;5047307;28;20490;-77
2021/09/05 09:41:49;;;;;;;6.07;5.67;;;39.50;25.90;;;;;;5043193;28;20672;-74
2021/09/05 09:44:15;;;;;;;6.70;6.20;;;39.70;25.10;;;;;;5045659;28;20984;-78
2021/09/05 09:46:44;;;;;;;6.47;5.90;;;39.30;24.90;;;;;;5046771;28;20528;-76
2021/09/05 09:49:14;;;;;;;6.30;5.80;;;39.30;26.60;;;;;;5039112;28;20738;-78
2021/09/05 09:51:41;;;;;;;6.00;5.40;;;39.40;25.70;;;;;;5041460;28;20456;-81
2021/09/05 09:54:07;;;;;;;6.03;5.53;;;40.00;26.00;;;;;;5040753;28;20432;-76
2021/09/05 09:56:34;;;;;;;5.93;5.53;;;39.80;23.80;;;;;;5041618;28;20890;-76
2021/09/05 09:59:03;;;;;;;6.37;5.53;;;40.50;24.60;;;;;;5041670;28;20441;-76
2021/09/05 10:01:30;;;;;;;5.80;5.40;;;40.30;24.50;;;;;;5042674;28;20435;-75
2021/09/05 10:03:58;;;;;;;6.53;5.83;;;39.40;24.20;;;;;;5042547;28;20432;-76
2021/09/05 10:06:30;;;;;;;6.90;6.40;;;39.80;24.60;;;;;;5044801;28;20523;-76
2021/09/05 10:09:04;;;;;;;5.80;5.40;;;38.90;25.10;;;;;;5046960;28;21040;-76
2021/09/05 10:11:31;;;;;;;5.30;4.90;;;39.30;25.20;;;;;;5051268;28;20437;-75
2021/09/05 10:13:57;;;;;;;5.87;5.37;;;39.90;25.10;;;;;;5046759;28;20504;-75
2021/09/05 10:16:24;;;;;;;7.10;6.47;;;40.70;23.90;;;;;;5042975;28;20438;-76
2021/09/05 10:18:53;;;;;;;6.90;6.40;;;40.60;23.10;;;;;;5040673;28;20666;-75
2021/09/05 10:21:20;;;;;;;6.23;5.73;;;40.10;24.00;;;;;;5042675;28;20945;-76
2021/09/05 10:23:50;;;;;;;6.50;6.00;;;39.40;24.30;;;;;;5049047;28;20802;-76
2021/09/05 10:26:16;;;;;;;6.70;6.10;;;40.00;24.70;;;;;;5046588;28;20808;-75
2021/09/05 10:28:53;;;;;;;6.10;5.57;;;40.70;23.90;;;;;;5045170;28;20465;-77
2021/09/05 10:31:36;;;;;;;5.70;5.40;;;40.90;22.50;;;;;;5043108;28;20425;-76
2021/09/05 10:34:02;;;;;;;6.37;5.40;;;41.80;23.00;;;;;;5041412;28;20429;-76
2021/09/05 10:36:28;;;;;;;6.30;5.80;;;42.20;22.80;;;;;;5040633;28;20444;-77
2021/09/05 10:39:05;;;;;;;6.10;5.70;;;42.70;22.10;;;;;;5042793;28;20190;-76
2021/09/05 10:41:31;;;;;;;5.93;5.53;;;42.70;21.10;;;;;;5035097;28;20265;-76
2021/09/05 10:44:06;;;;;;;5.37;4.97;;;43.20;21.30;;;;;;5053293;28;20594;-76
2021/09/05 10:46:36;;;;;;;5.40;5.00;;;43.00;20.30;;;;;;5043950;28;20656;-77
2021/09/05 10:49:04;;;;;;;5.27;4.87;;;41.90;21.00;;;;;;5041514;28;20838;-78
2021/09/05 10:51:33;;;;;;;5.10;4.70;;;42.00;21.30;;;;;;5040941;28;20433;-77
2021/09/05 10:54:02;;;;;;;4.43;4.13;;;42.30;20.40;;;;;;5039465;28;20516;-76
2021/09/05 10:56:37;;;;;;;5.10;4.70;;;43.10;19.30;;;;;;5038981;28;20433;-76
2021/09/05 10:59:11;;;;;;;4.87;4.57;;;43.50;19.70;;;;;;5041777;28;20431;-77
2021/09/05 11:01:57;;;;;;;4.83;4.53;;;43.90;19.80;;;;;;5046217;28;20802;-78
2021/09/05 11:04:38;;;;;;;5.30;4.90;;;44.30;18.00;;;;;;5045929;28;20425;-77
2021/09/05 11:07:06;;;;;;;5.80;5.40;;;44.60;18.40;;;;;;5035878;28;20511;-78
2021/09/05 11:09:31;;;;;;;5.60;5.20;;;45.10;18.60;;;;;;5041089;28;20525;-78
2021/09/05 11:12:10;;;;;;;4.77;4.47;;;45.60;17.70;;;;;;5041154;28;20421;-76
2021/09/05 11:14:51;;;;;;;5.40;4.90;;;45.90;18.00;;;;;;5040867;28;20186;-77
2021/09/05 11:17:19;;;;;;;5.57;5.17;;;45.40;17.80;;;;;;5040579;28;20459;-78
2021/09/05 11:20:00;;;;;;;5.60;5.20;;;45.40;17.60;;;;;;5045978;28;20511;-82
2021/09/05 11:22:28;;;;;;;5.37;4.97;;;45.10;17.90;;;;;;5042100;28;20516;-78
2021/09/05 11:25:13;;;;;;;5.07;4.57;;;45.40;18.20;;;;;;5034566;28;20445;-78
2021/09/05 11:27:54;;;;;;;5.37;4.87;;;45.80;17.60;;;;;;5048207;28;20435;-78
2021/09/05 11:30:20;;;;;;;5.30;5.00;;;46.10;17.60;;;;;;5043438;28;20970;-76
2021/09/05 11:32:46;;;;;;;5.93;5.27;;;45.90;16.70;;;;;;5040422;28;20440;-76
2021/09/05 11:35:13;;;;;;;4.80;4.50;;;46.30;18.00;;;;;;5045347;28;20460;-78
2021/09/05 11:37:41;;;;;;;5.00;4.60;;;46.80;17.60;;;;;;5042601;28;20698;-77
2021/09/05 11:40:16;;;;;;;5.50;5.10;;;47.00;17.60;;;;;;5043621;28;20468;-77
2021/09/05 11:42:50;;;;;;;4.80;4.47;;;47.50;17.50;;;;;;5039721;28;20527;-77
2021/09/05 11:45:17;;;;;;;4.30;3.93;;;47.90;16.70;;;;;;5041719;28;20535;-75
2021/09/05 11:47:43;;;;;;;5.30;4.80;;;47.80;15.70;;;;;;5043752;28;20496;-76
2021/09/05 11:50:10;;;;;;;4.70;4.30;;;47.90;15.60;;;;;;5050532;28;20460;-76
2021/09/05 11:52:37;;;;;;;4.80;4.50;;;47.80;15.30;;;;;;5044391;28;20460;-76
2021/09/05 11:55:16;;;;;;;5.10;4.70;;;47.70;15.80;;;;;;5044663;28;20877;-76
2021/09/05 11:57:58;;;;;;;4.97;4.67;;;47.00;16.50;;;;;;5043352;28;21751;-76
2021/09/05 12:00:35;;;;;;;5.10;4.70;;;46.90;16.60;;;;;;5035387;28;20606;-76
2021/09/05 12:03:12;;;;;;;5.03;4.63;;;47.20;16.70;;;;;;5040036;28;20519;-77
2021/09/05 12:05:40;;;;;;;5.13;4.70;;;47.70;16.70;;;;;;5041226;28;20424;-77
2021/09/05 12:08:06;;;;;;;5.00;4.60;;;47.80;16.50;;;;;;5044952;28;20520;-77
2021/09/05 12:10:33;;;;;;;5.50;5.10;;;47.40;16.10;;;;;;5042846;28;20437;-77
2021/09/05 12:13:08;;;;;;;5.03;4.73;;;46.70;16.70;;;;;;5042251;28;20938;-77
2021/09/05 12:15:39;;;;;;;4.70;4.40;;;47.00;17.60;;;;;;5039244;28;20439;-78
2021/09/05 12:18:19;;;;;;;4.87;4.57;;;47.40;16.80;;;;;;5040339;28;20848;-78
2021/09/05 12:20:49;;;;;;;5.20;4.80;;;47.00;16.20;;;;;;5039863;28;21010;-79
2021/09/05 12:23:32;;;;;;;5.00;4.57;;;45.90;17.10;;;;;;5042287;28;20429;-78
2021/09/05 12:26:01;;;;;;;5.40;5.00;;;44.20;18.50;;;;;;5043023;28;20483;-76
2021/09/05 12:28:29;;;;;;;4.57;4.27;;;43.10;18.70;;;;;;5047507;28;20792;-78
2021/09/05 12:31:00;;;;;;;4.87;4.30;;;42.90;19.60;;;;;;5043233;28;20482;-79
2021/09/05 12:33:25;;;;;;;5.00;4.60;;;43.30;19.30;;;;;;5032532;28;20797;-79
2021/09/05 12:35:55;;;;;;;5.27;4.87;;;43.20;19.00;;;;;;5041344;28;20432;-79
2021/09/05 12:38:30;;;;;;;5.10;4.70;;;42.80;19.00;;;;;;5044984;28;20345;-78
2021/09/05 12:41:13;;;;;;;5.60;5.20;;;41.90;20.50;;;;;;5051608;28;21001;-78
2021/09/05 12:43:41;;;;;;;5.00;4.70;;;41.00;21.60;;;;;;5041099;28;20432;-79
2021/09/05 12:46:07;;;;;;;5.00;4.70;;;41.70;22.00;;;;;;5039436;28;20421;-78
2021/09/05 12:48:37;;;;;;;5.80;5.40;;;43.10;20.40;;;;;;5039711;28;20512;-79